Flight Track Log - Related Links

Times and Time Zones

All times are in EDT time to prevent confusion due to time zone crossing. See the SWA817 flight status page for this flight to view local times or setup timezone preferences in your user account.

Time Position Orientation Groundspeed Altitude Reporting Facility
EDT Latitude Longitude Course Direction KTS MPH feet Rate Location/Type
Tue 04:15:53 PM 33.4333 -112.0333 252° West 177 204 2,100  Level Phoenix TRACON
Tue 04:16:17 PM 33.4272 -112.0553 252° West 182 209 2,600 1,624 Climbing Albuquerque Center
Tue 04:17:18 PM 33.4047 -112.1261 249° West 227 261 4,400 2,488 Climbing Albuquerque Center
Tue 04:18:20 PM 33.3800 -112.2106 251° West 265 305 7,700 2,855 Climbing Albuquerque Center
Tue 04:19:22 PM 33.3828 -112.2992 272° West 276 318 10,300 1,790 Climbing Albuquerque Center
Tue 04:20:24 PM 33.3942 -112.4008 278° West 312 359 11,400 2,226 Climbing Albuquerque Center
Tue 04:21:26 PM 33.4156 -112.5369 281° West 344 396 14,900 2,806 Climbing Albuquerque Center
Tue 04:22:28 PM 33.4317 -112.6547 279° West 348 400 17,200 2,177 Climbing Albuquerque Center
Tue 04:23:30 PM 33.4458 -112.7717 278° West 353 406 19,400 2,032 Climbing Albuquerque Center
Tue 04:24:32 PM 33.4653 -112.8911 281° West 363 418 21,400 1,746 Climbing Albuquerque Center
Tue 04:26:00 PM 33.4776 -113.0043 279° West  Level FlightAware Approximate
Tue 04:27:03 PM 33.5275 -113.2083 279° West 377 434 25,600  Level Los Angeles Center
Tue 04:27:37 PM 33.5414 -113.2847 282° West 381 438 26,300 1,438 Climbing Albuquerque Center
Tue 04:28:39 PM 33.5656 -113.4133 283° West 388 447 27,900 1,500 Climbing Albuquerque Center
Tue 04:29:41 PM 33.5892 -113.5406 283° West 391 450 29,400 1,016 Climbing Albuquerque Center
Tue 04:30:43 PM 33.6133 -113.6631 283° West 386 444 30,000 339 Climbing Albuquerque Center
Tue 04:31:45 PM 33.6361 -113.7922 282° West 389 448 30,100 48 Climbing Albuquerque Center
Tue 04:32:47 PM 33.6506 -113.9208 278° West 391 450 30,100  Level Albuquerque Center
Tue 04:33:49 PM 33.6625 -114.0511 276° West 393 452 30,100  Level Albuquerque Center
Tue 04:34:51 PM 33.6778 -114.2061 277° West 391 450 30,100 -49 Level Albuquerque Center
Tue 04:35:52 PM 33.6903 -114.3347 277° West 395 455 30,000 -58 Descending Albuquerque Center
Tue 04:36:35 PM 33.6994 -114.4244 277° West 393 452 30,000  Level Los Angeles Center
Tue 04:37:37 PM 33.7119 -114.5556 277° West 396 456 30,000  Level Los Angeles Center
Tue 04:38:39 PM 33.7233 -114.6861 276° West 396 456 30,000  Level Los Angeles Center
Tue 04:39:41 PM 33.7372 -114.8436 276° West 396 456 30,000  Level Los Angeles Center
Tue 04:40:43 PM 33.7500 -114.9756 277° West 398 458 30,000 -145 Level Los Angeles Center
Tue 04:41:45 PM 33.7617 -115.1075 276° West 400 460 29,700 -629 Descending Los Angeles Center
Tue 04:42:47 PM 33.7739 -115.2378 276° West 396 456 28,700 -1,016 Descending Los Angeles Center
Tue 04:43:49 PM 33.7839 -115.3672 275° West 392 451 27,600 -1,016 Descending Los Angeles Center
Tue 04:44:51 PM 33.7933 -115.4936 275° West 384 442 26,600 -1,056 Descending Los Angeles Center
Tue 04:45:54 PM 33.8064 -115.6433 276° West 377 434 25,400 -1,056 Descending Los Angeles Center
Tue 04:46:56 PM 33.8172 -115.7656 276° West 370 426 24,400 -677 Descending Los Angeles Center
Tue 04:47:58 PM 33.8278 -115.8864 276° West 366 421 24,000 -194 Descending Los Angeles Center
Tue 04:49:00 PM 33.8369 -116.0097 275° West 370 426 24,000  Level Los Angeles Center
Tue 04:50:02 PM 33.8469 -116.1325 276° West 372 428 24,000 -774 Level Los Angeles Center
Tue 04:51:04 PM 33.8589 -116.2772 276° West 365 420 22,400 -1,984 Descending Los Angeles Center
Tue 04:52:06 PM 33.8683 -116.4022 275° West 373 429 19,900 -2,661 Descending Los Angeles Center
Tue 04:53:08 PM 33.8753 -116.5228 274° West 366 421 16,900 -2,352 Descending Los Angeles Center
Tue 04:54:11 PM 33.8797 -116.6461 273° West 370 426 15,000 -1,248 Descending Los Angeles Center
Tue 04:55:13 PM 33.8864 -116.7700 274° West 371 427 14,300 -488 Descending Los Angeles Center
Tue 04:56:14 PM 33.8903 -116.8797 272° West 331 381 14,000 -145 Descending Los Angeles Center
Tue 04:57:17 PM 33.8944 -116.9883 273° West 274 315 14,000 -816 Level Los Angeles Center
Tue 04:58:19 PM 33.8992 -117.0708 274° West 253 291 12,300 -2,286 Descending Los Angeles Center
Tue 04:59:23 PM 33.9333 -117.1667 293° West 299 344 9,200 -2,613 Descending Southern California TRACON
Tue 05:00:23 PM 33.9833 -117.2500 306° West 285 328 6,900 -1,700 Descending Southern California TRACON
Tue 05:01:23 PM 34.0333 -117.3167 312° West 255 293 5,800 -1,250 Descending Southern California TRACON
Tue 05:02:23 PM 34.0500 -117.3833 287° West 234 269 4,400 -1,450 Descending Southern California TRACON
Tue 05:03:23 PM 34.0500 -117.4667 270° West 221 254 2,900 -1,250 Descending Southern California TRACON
Tue 05:04:23 PM 34.0500 -117.5167 270° West 166 191 1,900 -842 Descending Southern California TRACON
Tue 05:05:17 PM 34.0500 -117.5667 270° West 144 166 1,300 -667 Descending Southern California TRACON
Tue 05:07:00 PM 34.0500 -117.6000 287° West  Level FlightAware Approximate

Login

Don't have an account? Register now (free) for customized features, flight alerts, and more!